sensor_id;sensor_type;location;lat;lon;timestamp;temperature;humidity
16827;DHT22;8530;49.540;8.576;2022-10-16T00:01:07;17.10;99.90
16827;DHT22;8530;49.540;8.576;2022-10-16T00:03:35;17.20;99.90
16827;DHT22;8530;49.540;8.576;2022-10-16T00:06:02;17.10;99.90
16827;DHT22;8530;49.540;8.576;2022-10-16T00:08:30;17.10;99.90
16827;DHT22;8530;49.540;8.576;2022-10-16T00:11:01;17.10;99.90
16827;DHT22;8530;49.540;8.576;2022-10-16T00:13:30;17.20;99.90
16827;DHT22;8530;49.540;8.576;2022-10-16T00:15:59;17.10;99.90
16827;DHT22;8530;49.540;8.576;2022-10-16T00:18:27;17.10;99.90
16827;DHT22;8530;49.540;8.576;2022-10-16T00:20:54;17.20;99.90
16827;DHT22;8530;49.540;8.576;2022-10-16T00:23:21;17.10;99.90
16827;DHT22;8530;49.540;8.576;2022-10-16T00:25:55;17.10;99.90
16827;DHT22;8530;49.540;8.576;2022-10-16T00:28:22;17.10;99.90
16827;DHT22;8530;49.540;8.576;2022-10-16T00:30:51;17.10;99.90
16827;DHT22;8530;49.540;8.576;2022-10-16T00:33:18;17.10;99.90
16827;DHT22;8530;49.540;8.576;2022-10-16T00:35:45;17.10;99.90
16827;DHT22;8530;49.540;8.576;2022-10-16T00:38:12;17.20;99.90
16827;DHT22;8530;49.540;8.576;2022-10-16T00:40:39;17.10;99.90
16827;DHT22;8530;49.540;8.576;2022-10-16T00:43:12;17.10;99.90
16827;DHT22;8530;49.540;8.576;2022-10-16T00:45:39;17.10;99.90
16827;DHT22;8530;49.540;8.576;2022-10-16T00:48:11;17.10;99.90
16827;DHT22;8530;49.540;8.576;2022-10-16T00:50:39;17.10;99.90
16827;DHT22;8530;49.540;8.576;2022-10-16T00:53:09;17.10;99.90
16827;DHT22;8530;49.540;8.576;2022-10-16T00:55:36;17.00;99.90
16827;DHT22;8530;49.540;8.576;2022-10-16T00:58:03;17.00;99.90
16827;DHT22;8530;49.540;8.576;2022-10-16T01:00:30;16.90;99.90
16827;DHT22;8530;49.540;8.576;2022-10-16T01:02:58;17.00;99.90
16827;DHT22;8530;49.540;8.576;2022-10-16T01:05:32;17.00;99.90
16827;DHT22;8530;49.540;8.576;2022-10-16T01:08:07;17.00;99.90
16827;DHT22;8530;49.540;8.576;2022-10-16T01:10:40;17.00;99.90
16827;DHT22;8530;49.540;8.576;2022-10-16T01:13:10;17.00;99.90
16827;DHT22;8530;49.540;8.576;2022-10-16T01:15:43;17.00;99.90
16827;DHT22;8530;49.540;8.576;2022-10-16T01:18:16;17.00;99.90
16827;DHT22;8530;49.540;8.576;2022-10-16T01:20:49;17.00;99.90
16827;DHT22;8530;49.540;8.576;2022-10-16T01:23:27;17.00;99.90
16827;DHT22;8530;49.540;8.576;2022-10-16T01:26:11;17.00;99.90
16827;DHT22;8530;49.540;8.576;2022-10-16T01:28:46;17.00;99.90
16827;DHT22;8530;49.540;8.576;2022-10-16T01:31:18;17.00;99.90
16827;DHT22;8530;49.540;8.576;2022-10-16T01:33:51;17.00;99.90
16827;DHT22;8530;49.540;8.576;2022-10-16T01:36:25;17.10;99.90
16827;DHT22;8530;49.540;8.576;2022-10-16T01:38:55;17.00;99.90
16827;DHT22;8530;49.540;8.576;2022-10-16T01:41:26;17.10;99.90
16827;DHT22;8530;49.540;8.576;2022-10-16T01:43:59;17.00;99.90
16827;DHT22;8530;49.540;8.576;2022-10-16T01:46:28;17.00;99.90
16827;DHT22;8530;49.540;8.576;2022-10-16T01:48:57;17.00;99.90
16827;DHT22;8530;49.540;8.576;2022-10-16T01:51:26;17.10;99.90
16827;DHT22;8530;49.540;8.576;2022-10-16T01:53:57;17.10;99.90
16827;DHT22;8530;49.540;8.576;2022-10-16T01:56:25;17.10;99.90
16827;DHT22;8530;49.540;8.576;2022-10-16T01:58:57;17.10;99.90
16827;DHT22;8530;49.540;8.576;2022-10-16T02:01:27;17.00;99.90
16827;DHT22;8530;49.540;8.576;2022-10-16T02:03:58;17.10;99.90
16827;DHT22;8530;49.540;8.576;2022-10-16T02:06:27;17.00;99.90
16827;DHT22;8530;49.540;8.576;2022-10-16T02:08:55;16.90;99.90
16827;DHT22;8530;49.540;8.576;2022-10-16T02:11:22;16.90;99.90
16827;DHT22;8530;49.540;8.576;2022-10-16T02:13:53;16.90;99.90
16827;DHT22;8530;49.540;8.576;2022-10-16T02:16:32;16.90;99.90
16827;DHT22;8530;49.540;8.576;2022-10-16T02:18:59;16.90;99.90
16827;DHT22;8530;49.540;8.576;2022-10-16T02:21:29;16.80;99.90
16827;DHT22;8530;49.540;8.576;2022-10-16T02:24:02;16.80;99.90
16827;DHT22;8530;49.540;8.576;2022-10-16T02:26:34;16.80;99.90
16827;DHT22;8530;49.540;8.576;2022-10-16T02:29:05;16.80;99.90
16827;DHT22;8530;49.540;8.576;2022-10-16T02:31:40;16.80;99.90
16827;DHT22;8530;49.540;8.576;2022-10-16T02:34:08;16.80;99.90
16827;DHT22;8530;49.540;8.576;2022-10-16T02:36:38;16.80;99.90
16827;DHT22;8530;49.540;8.576;2022-10-16T02:39:05;16.70;99.90
16827;DHT22;8530;49.540;8.576;2022-10-16T02:41:33;16.70;99.90
16827;DHT22;8530;49.540;8.576;2022-10-16T02:43:59;16.70;99.90
16827;DHT22;8530;49.540;8.576;2022-10-16T02:46:26;16.70;99.90
16827;DHT22;8530;49.540;8.576;2022-10-16T02:48:54;16.80;99.90
16827;DHT22;8530;49.540;8.576;2022-10-16T02:53:49;16.80;99.90
16827;DHT22;8530;49.540;8.576;2022-10-16T02:56:16;16.80;99.90
16827;DHT22;8530;49.540;8.576;2022-10-16T02:58:43;16.80;99.90
16827;DHT22;8530;49.540;8.576;2022-10-16T03:01:09;16.80;99.90
16827;DHT22;8530;49.540;8.576;2022-10-16T03:03:38;16.80;99.90
16827;DHT22;8530;49.540;8.576;2022-10-16T03:06:06;16.80;99.90
16827;DHT22;8530;49.540;8.576;2022-10-16T03:08:33;16.80;99.90
16827;DHT22;8530;49.540;8.576;2022-10-16T03:11:00;16.80;99.90
16827;DHT22;8530;49.540;8.576;2022-10-16T03:13:26;16.80;99.90
16827;DHT22;8530;49.540;8.576;2022-10-16T03:15:54;16.80;99.90
16827;DHT22;8530;49.540;8.576;2022-10-16T03:18:20;16.80;99.90
16827;DHT22;8530;49.540;8.576;2022-10-16T03:20:47;16.80;99.90
16827;DHT22;8530;49.540;8.576;2022-10-16T03:23:15;16.80;99.90
16827;DHT22;8530;49.540;8.576;2022-10-16T03:25:42;16.80;99.90
16827;DHT22;8530;49.540;8.576;2022-10-16T03:28:09;16.80;99.90
16827;DHT22;8530;49.540;8.576;2022-10-16T03:30:36;16.80;99.90
16827;DHT22;8530;49.540;8.576;2022-10-16T03:33:05;16.80;99.90
16827;DHT22;8530;49.540;8.576;2022-10-16T03:35:31;16.80;99.90
16827;DHT22;8530;49.540;8.576;2022-10-16T03:37:58;16.80;99.90
16827;DHT22;8530;49.540;8.576;2022-10-16T03:40:26;16.80;99.90
16827;DHT22;8530;49.540;8.576;2022-10-16T03:42:53;16.80;99.90
16827;DHT22;8530;49.540;8.576;2022-10-16T03:45:22;16.90;99.90
16827;DHT22;8530;49.540;8.576;2022-10-16T03:47:49;16.90;99.90
16827;DHT22;8530;49.540;8.576;2022-10-16T03:50:16;16.90;99.90
16827;DHT22;8530;49.540;8.576;2022-10-16T03:52:43;16.90;99.90
16827;DHT22;8530;49.540;8.576;2022-10-16T03:55:10;16.90;99.90
16827;DHT22;8530;49.540;8.576;2022-10-16T03:57:38;16.90;99.90
16827;DHT22;8530;49.540;8.576;2022-10-16T04:00:05;16.90;99.90
16827;DHT22;8530;49.540;8.576;2022-10-16T04:02:32;16.90;99.90
16827;DHT22;8530;49.540;8.576;2022-10-16T04:04:59;16.90;99.90
16827;DHT22;8530;49.540;8.576;2022-10-16T04:07:26;16.90;99.90
16827;DHT22;8530;49.540;8.576;2022-10-16T04:09:52;16.90;99.90
16827;DHT22;8530;49.540;8.576;2022-10-16T04:12:19;17.00;99.90
16827;DHT22;8530;49.540;8.576;2022-10-16T04:14:47;17.00;99.90
16827;DHT22;8530;49.540;8.576;2022-10-16T04:17:14;17.00;99.90
16827;DHT22;8530;49.540;8.576;2022-10-16T04:19:41;17.00;99.90
16827;DHT22;8530;49.540;8.576;2022-10-16T04:22:07;17.00;99.90
16827;DHT22;8530;49.540;8.576;2022-10-16T04:24:34;17.00;99.90
16827;DHT22;8530;49.540;8.576;2022-10-16T04:27:01;17.00;99.90
16827;DHT22;8530;49.540;8.576;2022-10-16T04:29:28;17.00;99.90
16827;DHT22;8530;49.540;8.576;2022-10-16T04:31:56;17.00;99.90
16827;DHT22;8530;49.540;8.576;2022-10-16T04:34:23;17.00;99.90
16827;DHT22;8530;49.540;8.576;2022-10-16T04:36:50;17.00;99.90
16827;DHT22;8530;49.540;8.576;2022-10-16T04:39:17;17.00;99.90
16827;DHT22;8530;49.540;8.576;2022-10-16T04:41:44;16.90;99.90
16827;DHT22;8530;49.540;8.576;2022-10-16T04:44:11;16.90;99.90
16827;DHT22;8530;49.540;8.576;2022-10-16T04:46:42;16.90;99.90
16827;DHT22;8530;49.540;8.576;2022-10-16T04:49:11;16.80;99.90
16827;DHT22;8530;49.540;8.576;2022-10-16T04:51:37;16.80;99.90
16827;DHT22;8530;49.540;8.576;2022-10-16T04:54:04;16.80;99.90
16827;DHT22;8530;49.540;8.576;2022-10-16T04:56:31;16.80;99.90
16827;DHT22;8530;49.540;8.576;2022-10-16T04:58:58;16.80;99.90
16827;DHT22;8530;49.540;8.576;2022-10-16T05:01:25;16.80;99.90
16827;DHT22;8530;49.540;8.576;2022-10-16T05:03:51;16.80;99.90
16827;DHT22;8530;49.540;8.576;2022-10-16T05:06:20;16.70;99.90
16827;DHT22;8530;49.540;8.576;2022-10-16T05:08:46;16.70;99.90
16827;DHT22;8530;49.540;8.576;2022-10-16T05:11:13;16.70;99.90
16827;DHT22;8530;49.540;8.576;2022-10-16T05:13:40;16.70;99.90
16827;DHT22;8530;49.540;8.576;2022-10-16T05:16:07;16.70;99.90
16827;DHT22;8530;49.540;8.576;2022-10-16T05:18:34;16.70;99.90
16827;DHT22;8530;49.540;8.576;2022-10-16T05:21:00;16.70;99.90
16827;DHT22;8530;49.540;8.576;2022-10-16T05:23:29;16.70;99.90
16827;DHT22;8530;49.540;8.576;2022-10-16T05:25:56;16.70;99.90
16827;DHT22;8530;49.540;8.576;2022-10-16T05:28:24;16.70;99.90
16827;DHT22;8530;49.540;8.576;2022-10-16T05:30:51;16.70;99.90
16827;DHT22;8530;49.540;8.576;2022-10-16T05:33:19;16.70;99.90
16827;DHT22;8530;49.540;8.576;2022-10-16T05:35:47;16.70;99.90
16827;DHT22;8530;49.540;8.576;2022-10-16T05:38:13;16.70;99.90
16827;DHT22;8530;49.540;8.576;2022-10-16T05:40:41;16.70;99.90
16827;DHT22;8530;49.540;8.576;2022-10-16T05:43:08;16.80;99.90
16827;DHT22;8530;49.540;8.576;2022-10-16T05:45:35;16.70;99.90
16827;DHT22;8530;49.540;8.576;2022-10-16T05:48:02;16.70;99.90
16827;DHT22;8530;49.540;8.576;2022-10-16T05:50:29;16.80;99.90
16827;DHT22;8530;49.540;8.576;2022-10-16T05:52:56;16.80;99.90
16827;DHT22;8530;49.540;8.576;2022-10-16T05:55:23;16.80;99.90
16827;DHT22;8530;49.540;8.576;2022-10-16T05:57:54;16.80;99.90
16827;DHT22;8530;49.540;8.576;2022-10-16T06:00:20;16.80;99.90
16827;DHT22;8530;49.540;8.576;2022-10-16T06:02:49;16.80;99.90
16827;DHT22;8530;49.540;8.576;2022-10-16T06:05:16;16.80;99.90
16827;DHT22;8530;49.540;8.576;2022-10-16T06:07:43;16.80;99.90
16827;DHT22;8530;49.540;8.576;2022-10-16T06:10:10;16.90;99.90
16827;DHT22;8530;49.540;8.576;2022-10-16T06:12:37;16.80;99.90
16827;DHT22;8530;49.540;8.576;2022-10-16T06:15:05;16.80;99.90
16827;DHT22;8530;49.540;8.576;2022-10-16T06:17:32;16.90;99.90
16827;DHT22;8530;49.540;8.576;2022-10-16T06:19:59;16.90;99.90
16827;DHT22;8530;49.540;8.576;2022-10-16T06:22:26;16.90;99.90
16827;DHT22;8530;49.540;8.576;2022-10-16T06:24:52;16.90;99.90
16827;DHT22;8530;49.540;8.576;2022-10-16T06:27:19;16.90;99.90
16827;DHT22;8530;49.540;8.576;2022-10-16T06:29:46;17.00;99.90
16827;DHT22;8530;49.540;8.576;2022-10-16T06:32:14;17.00;99.90
16827;DHT22;8530;49.540;8.576;2022-10-16T06:34:41;17.00;99.90
16827;DHT22;8530;49.540;8.576;2022-10-16T06:37:07;17.00;99.90
16827;DHT22;8530;49.540;8.576;2022-10-16T06:39:34;17.00;99.90
16827;DHT22;8530;49.540;8.576;2022-10-16T06:42:01;17.10;99.90
16827;DHT22;8530;49.540;8.576;2022-10-16T06:44:28;17.10;99.90
16827;DHT22;8530;49.540;8.576;2022-10-16T06:46:54;17.10;99.90
16827;DHT22;8530;49.540;8.576;2022-10-16T06:49:22;17.20;99.90
16827;DHT22;8530;49.540;8.576;2022-10-16T06:51:50;17.30;99.90
16827;DHT22;8530;49.540;8.576;2022-10-16T06:54:17;17.30;99.90
16827;DHT22;8530;49.540;8.576;2022-10-16T06:56:44;17.30;99.90
16827;DHT22;8530;49.540;8.576;2022-10-16T06:59:11;17.30;99.90
16827;DHT22;8530;49.540;8.576;2022-10-16T07:01:38;17.40;99.90
16827;DHT22;8530;49.540;8.576;2022-10-16T07:04:05;17.50;99.90
16827;DHT22;8530;49.540;8.576;2022-10-16T07:06:34;17.60;99.90
16827;DHT22;8530;49.540;8.576;2022-10-16T07:09:04;17.70;99.90
16827;DHT22;8530;49.540;8.576;2022-10-16T07:11:33;17.80;99.90
16827;DHT22;8530;49.540;8.576;2022-10-16T07:14:03;17.80;99.90
16827;DHT22;8530;49.540;8.576;2022-10-16T07:16:35;17.80;99.90
16827;DHT22;8530;49.540;8.576;2022-10-16T07:19:03;17.90;99.90
16827;DHT22;8530;49.540;8.576;2022-10-16T07:21:31;17.90;99.90
16827;DHT22;8530;49.540;8.576;2022-10-16T07:24:02;18.00;99.90
16827;DHT22;8530;49.540;8.576;2022-10-16T07:26:31;18.00;99.90
16827;DHT22;8530;49.540;8.576;2022-10-16T07:28:59;18.10;99.90
16827;DHT22;8530;49.540;8.576;2022-10-16T07:31:26;18.20;99.90
16827;DHT22;8530;49.540;8.576;2022-10-16T07:33:54;18.40;99.90
16827;DHT22;8530;49.540;8.576;2022-10-16T07:36:21;18.60;99.90
16827;DHT22;8530;49.540;8.576;2022-10-16T07:38:48;18.70;99.90
16827;DHT22;8530;49.540;8.576;2022-10-16T07:41:18;18.90;99.90
16827;DHT22;8530;49.540;8.576;2022-10-16T07:43:45;19.10;99.90
16827;DHT22;8530;49.540;8.576;2022-10-16T07:46:12;19.00;99.90
16827;DHT22;8530;49.540;8.576;2022-10-16T07:48:39;19.10;99.90
16827;DHT22;8530;49.540;8.576;2022-10-16T07:51:07;19.10;99.90
16827;DHT22;8530;49.540;8.576;2022-10-16T07:53:34;19.00;99.90
16827;DHT22;8530;49.540;8.576;2022-10-16T07:56:02;18.90;99.90
16827;DHT22;8530;49.540;8.576;2022-10-16T07:58:32;18.90;99.90
16827;DHT22;8530;49.540;8.576;2022-10-16T08:01:02;18.90;99.90
16827;DHT22;8530;49.540;8.576;2022-10-16T08:03:29;18.90;99.90
16827;DHT22;8530;49.540;8.576;2022-10-16T08:05:56;19.10;99.90
16827;DHT22;8530;49.540;8.576;2022-10-16T08:08:23;19.20;99.90
16827;DHT22;8530;49.540;8.576;2022-10-16T08:10:50;19.30;99.90
16827;DHT22;8530;49.540;8.576;2022-10-16T08:13:17;19.20;99.90
16827;DHT22;8530;49.540;8.576;2022-10-16T08:15:46;19.00;99.90
16827;DHT22;8530;49.540;8.576;2022-10-16T08:18:14;18.90;99.90
16827;DHT22;8530;49.540;8.576;2022-10-16T08:20:42;18.80;99.90
16827;DHT22;8530;49.540;8.576;2022-10-16T08:23:11;18.70;99.90
16827;DHT22;8530;49.540;8.576;2022-10-16T08:25:38;18.70;99.90
16827;DHT22;8530;49.540;8.576;2022-10-16T08:28:07;18.70;99.90
16827;DHT22;8530;49.540;8.576;2022-10-16T08:30:34;18.60;99.90
16827;DHT22;8530;49.540;8.576;2022-10-16T08:33:03;18.60;99.90
16827;DHT22;8530;49.540;8.576;2022-10-16T08:35:30;18.60;99.90
16827;DHT22;8530;49.540;8.576;2022-10-16T08:37:57;18.60;99.90
16827;DHT22;8530;49.540;8.576;2022-10-16T08:40:29;18.60;99.90
16827;DHT22;8530;49.540;8.576;2022-10-16T08:43:27;18.60;99.90
16827;DHT22;8530;49.540;8.576;2022-10-16T08:46:16;18.60;99.90
16827;DHT22;8530;49.540;8.576;2022-10-16T08:48:49;18.70;99.90
16827;DHT22;8530;49.540;8.576;2022-10-16T08:51:20;18.90;99.90
16827;DHT22;8530;49.540;8.576;2022-10-16T08:53:51;18.90;99.90
16827;DHT22;8530;49.540;8.576;2022-10-16T08:56:18;18.80;99.90
16827;DHT22;8530;49.540;8.576;2022-10-16T08:58:46;18.70;99.90
16827;DHT22;8530;49.540;8.576;2022-10-16T09:01:15;18.50;99.90
16827;DHT22;8530;49.540;8.576;2022-10-16T09:03:58;18.30;99.90
16827;DHT22;8530;49.540;8.576;2022-10-16T09:06:40;18.00;99.90
16827;DHT22;8530;49.540;8.576;2022-10-16T09:09:20;17.80;99.90
16827;DHT22;8530;49.540;8.576;2022-10-16T09:11:53;17.60;99.90
16827;DHT22;8530;49.540;8.576;2022-10-16T09:14:34;17.60;99.90
16827;DHT22;8530;49.540;8.576;2022-10-16T09:17:20;17.50;99.90
16827;DHT22;8530;49.540;8.576;2022-10-16T09:19:54;17.60;99.90
16827;DHT22;8530;49.540;8.576;2022-10-16T09:22:26;17.80;99.90
16827;DHT22;8530;49.540;8.576;2022-10-16T09:24:54;18.00;99.90
16827;DHT22;8530;49.540;8.576;2022-10-16T09:27:21;18.10;99.90
16827;DHT22;8530;49.540;8.576;2022-10-16T09:29:48;18.30;99.90
16827;DHT22;8530;49.540;8.576;2022-10-16T09:32:18;18.50;99.90
16827;DHT22;8530;49.540;8.576;2022-10-16T09:34:48;18.90;99.90
16827;DHT22;8530;49.540;8.576;2022-10-16T09:37:20;19.30;99.90
16827;DHT22;8530;49.540;8.576;2022-10-16T09:39:49;19.80;99.90
16827;DHT22;8530;49.540;8.576;2022-10-16T09:42:17;20.30;99.90
16827;DHT22;8530;49.540;8.576;2022-10-16T09:44:48;20.90;99.90
16827;DHT22;8530;49.540;8.576;2022-10-16T09:47:18;21.50;99.90
16827;DHT22;8530;49.540;8.576;2022-10-16T09:49:53;21.90;99.90
16827;DHT22;8530;49.540;8.576;2022-10-16T09:52:22;22.20;99.90
16827;DHT22;8530;49.540;8.576;2022-10-16T09:54:51;22.40;99.90
16827;DHT22;8530;49.540;8.576;2022-10-16T09:57:18;22.60;99.90
16827;DHT22;8530;49.540;8.576;2022-10-16T09:59:46;22.50;99.90
16827;DHT22;8530;49.540;8.576;2022-10-16T10:02:15;22.30;99.90
16827;DHT22;8530;49.540;8.576;2022-10-16T10:04:50;22.10;99.90
16827;DHT22;8530;49.540;8.576;2022-10-16T10:07:25;21.80;99.90
16827;DHT22;8530;49.540;8.576;2022-10-16T10:09:53;21.60;99.90
16827;DHT22;8530;49.540;8.576;2022-10-16T10:12:23;21.40;99.90
16827;DHT22;8530;49.540;8.576;2022-10-16T10:14:51;21.40;99.90
16827;DHT22;8530;49.540;8.576;2022-10-16T10:17:20;21.30;99.90
16827;DHT22;8530;49.540;8.576;2022-10-16T10:19:52;21.40;99.90
16827;DHT22;8530;49.540;8.576;2022-10-16T10:22:31;21.50;99.90
16827;DHT22;8530;49.540;8.576;2022-10-16T10:25:15;21.50;99.90
16827;DHT22;8530;49.540;8.576;2022-10-16T10:27:57;21.60;99.90
16827;DHT22;8530;49.540;8.576;2022-10-16T10:30:29;21.60;99.90
16827;DHT22;8530;49.540;8.576;2022-10-16T10:33:09;21.50;99.90
16827;DHT22;8530;49.540;8.576;2022-10-16T10:35:44;21.40;99.90
16827;DHT22;8530;49.540;8.576;2022-10-16T10:38:25;21.40;99.90
16827;DHT22;8530;49.540;8.576;2022-10-16T10:41:00;21.30;99.90
16827;DHT22;8530;49.540;8.576;2022-10-16T10:43:41;21.20;99.90
16827;DHT22;8530;49.540;8.576;2022-10-16T10:46:14;21.00;99.90
16827;DHT22;8530;49.540;8.576;2022-10-16T10:48:54;20.90;99.90
16827;DHT22;8530;49.540;8.576;2022-10-16T10:51:30;20.80;99.90
16827;DHT22;8530;49.540;8.576;2022-10-16T10:54:06;20.80;99.90
16827;DHT22;8530;49.540;8.576;2022-10-16T10:56:57;20.90;99.90
16827;DHT22;8530;49.540;8.576;2022-10-16T11:02:35;21.40;99.90
16827;DHT22;8530;49.540;8.576;2022-10-16T11:05:24;21.60;99.80
16827;DHT22;8530;49.540;8.576;2022-10-16T11:07:56;21.70;99.50
16827;DHT22;8530;49.540;8.576;2022-10-16T11:10:28;21.80;99.30
16827;DHT22;8530;49.540;8.576;2022-10-16T11:13:00;22.00;99.10
16827;DHT22;8530;49.540;8.576;2022-10-16T11:15:33;22.00;98.90
16827;DHT22;8530;49.540;8.576;2022-10-16T11:18:06;22.20;98.70
16827;DHT22;8530;49.540;8.576;2022-10-16T11:20:37;22.30;98.50
16827;DHT22;8530;49.540;8.576;2022-10-16T11:23:10;22.40;98.40
16827;DHT22;8530;49.540;8.576;2022-10-16T11:25:42;22.50;98.20
16827;DHT22;8530;49.540;8.576;2022-10-16T11:28:12;22.70;98.10
16827;DHT22;8530;49.540;8.576;2022-10-16T11:30:44;22.80;98.00
16827;DHT22;8530;49.540;8.576;2022-10-16T11:33:24;22.90;97.70
16827;DHT22;8530;49.540;8.576;2022-10-16T11:36:03;23.00;97.50
16827;DHT22;8530;49.540;8.576;2022-10-16T11:38:34;23.10;97.40
16827;DHT22;8530;49.540;8.576;2022-10-16T11:41:19;23.20;97.10
16827;DHT22;8530;49.540;8.576;2022-10-16T11:43:56;23.20;96.80
16827;DHT22;8530;49.540;8.576;2022-10-16T11:46:26;23.30;96.70
16827;DHT22;8530;49.540;8.576;2022-10-16T11:48:57;23.40;96.50
16827;DHT22;8530;49.540;8.576;2022-10-16T11:51:32;23.40;96.30
16827;DHT22;8530;49.540;8.576;2022-10-16T11:54:04;23.50;96.10
16827;DHT22;8530;49.540;8.576;2022-10-16T11:56:38;23.60;95.90
16827;DHT22;8530;49.540;8.576;2022-10-16T11:59:13;23.50;95.60
16827;DHT22;8530;49.540;8.576;2022-10-16T12:01:47;23.40;95.40
16827;DHT22;8530;49.540;8.576;2022-10-16T12:04:21;23.30;95.50
16827;DHT22;8530;49.540;8.576;2022-10-16T12:06:54;23.30;95.60
16827;DHT22;8530;49.540;8.576;2022-10-16T12:09:27;23.30;95.60
16827;DHT22;8530;49.540;8.576;2022-10-16T12:11:56;23.40;95.50
16827;DHT22;8530;49.540;8.576;2022-10-16T12:14:36;23.50;95.40
16827;DHT22;8530;49.540;8.576;2022-10-16T12:17:22;23.60;95.20
16827;DHT22;8530;49.540;8.576;2022-10-16T12:19:58;23.70;95.10
16827;DHT22;8530;49.540;8.576;2022-10-16T12:22:29;23.70;94.90
16827;DHT22;8530;49.540;8.576;2022-10-16T12:24:57;23.60;94.60
16827;DHT22;8530;49.540;8.576;2022-10-16T12:27:29;23.60;94.40
16827;DHT22;8530;49.540;8.576;2022-10-16T12:29:59;23.60;94.20
16827;DHT22;8530;49.540;8.576;2022-10-16T12:32:32;23.70;94.10
16827;DHT22;8530;49.540;8.576;2022-10-16T12:35:00;23.70;93.90
16827;DHT22;8530;49.540;8.576;2022-10-16T12:37:31;23.60;93.80
16827;DHT22;8530;49.540;8.576;2022-10-16T12:39:59;23.70;93.70
16827;DHT22;8530;49.540;8.576;2022-10-16T12:42:39;23.80;93.60
16827;DHT22;8530;49.540;8.576;2022-10-16T12:45:24;23.90;93.50
16827;DHT22;8530;49.540;8.576;2022-10-16T12:47:52;24.00;93.30
16827;DHT22;8530;49.540;8.576;2022-10-16T12:50:28;24.10;93.20
16827;DHT22;8530;49.540;8.576;2022-10-16T12:52:57;24.10;92.90
16827;DHT22;8530;49.540;8.576;2022-10-16T12:55:24;24.20;92.80
16827;DHT22;8530;49.540;8.576;2022-10-16T12:58:19;24.30;92.60
16827;DHT22;8530;49.540;8.576;2022-10-16T13:00:55;24.40;92.30
16827;DHT22;8530;49.540;8.576;2022-10-16T13:06:19;24.50;91.60
16827;DHT22;8530;49.540;8.576;2022-10-16T13:09:08;24.40;91.30
16827;DHT22;8530;49.540;8.576;2022-10-16T13:11:58;24.40;91.10
16827;DHT22;8530;49.540;8.576;2022-10-16T13:17:32;24.30;90.80
16827;DHT22;8530;49.540;8.576;2022-10-16T13:20:10;24.40;90.90
16827;DHT22;8530;49.540;8.576;2022-10-16T13:22:44;24.30;90.60
16827;DHT22;8530;49.540;8.576;2022-10-16T13:25:22;24.20;90.40
16827;DHT22;8530;49.540;8.576;2022-10-16T13:27:55;24.00;90.00
16827;DHT22;8530;49.540;8.576;2022-10-16T13:30:26;23.80;89.90
16827;DHT22;8530;49.540;8.576;2022-10-16T13:32:59;23.50;89.60
16827;DHT22;8530;49.540;8.576;2022-10-16T13:35:28;23.30;89.70
16827;DHT22;8530;49.540;8.576;2022-10-16T13:38:11;23.10;89.80
16827;DHT22;8530;49.540;8.576;2022-10-16T13:40:48;23.00;90.00
16827;DHT22;8530;49.540;8.576;2022-10-16T13:43:17;22.90;90.10
16827;DHT22;8530;49.540;8.576;2022-10-16T13:45:54;22.80;90.20
16827;DHT22;8530;49.540;8.576;2022-10-16T13:48:21;22.70;90.20
16827;DHT22;8530;49.540;8.576;2022-10-16T13:51:02;22.70;90.30
16827;DHT22;8530;49.540;8.576;2022-10-16T13:53:31;22.60;90.30
16827;DHT22;8530;49.540;8.576;2022-10-16T13:55:59;22.60;90.30
16827;DHT22;8530;49.540;8.576;2022-10-16T13:58:27;22.70;90.40
16827;DHT22;8530;49.540;8.576;2022-10-16T14:00:57;22.70;90.40
16827;DHT22;8530;49.540;8.576;2022-10-16T14:03:25;22.80;90.50
16827;DHT22;8530;49.540;8.576;2022-10-16T14:05:54;22.90;90.50
16827;DHT22;8530;49.540;8.576;2022-10-16T14:08:22;22.90;90.40
16827;DHT22;8530;49.540;8.576;2022-10-16T14:10:52;22.90;90.30
16827;DHT22;8530;49.540;8.576;2022-10-16T14:13:26;22.80;90.20
16827;DHT22;8530;49.540;8.576;2022-10-16T14:15:56;22.80;90.20
16827;DHT22;8530;49.540;8.576;2022-10-16T14:18:25;22.70;90.20
16827;DHT22;8530;49.540;8.576;2022-10-16T14:20:54;22.70;90.30
16827;DHT22;8530;49.540;8.576;2022-10-16T14:23:23;22.60;90.30
16827;DHT22;8530;49.540;8.576;2022-10-16T14:26:06;22.50;90.30
16827;DHT22;8530;49.540;8.576;2022-10-16T14:28:33;22.40;90.30
16827;DHT22;8530;49.540;8.576;2022-10-16T14:31:02;22.40;90.40
16827;DHT22;8530;49.540;8.576;2022-10-16T14:33:46;22.30;90.50
16827;DHT22;8530;49.540;8.576;2022-10-16T14:36:14;22.30;90.60
16827;DHT22;8530;49.540;8.576;2022-10-16T14:38:47;22.20;90.60
16827;DHT22;8530;49.540;8.576;2022-10-16T14:41:15;22.10;90.70
16827;DHT22;8530;49.540;8.576;2022-10-16T14:43:42;22.00;90.70
16827;DHT22;8530;49.540;8.576;2022-10-16T14:46:13;22.00;90.90
16827;DHT22;8530;49.540;8.576;2022-10-16T14:48:41;21.90;91.00
16827;DHT22;8530;49.540;8.576;2022-10-16T14:51:13;21.80;91.10
16827;DHT22;8530;49.540;8.576;2022-10-16T14:53:40;21.70;91.20
16827;DHT22;8530;49.540;8.576;2022-10-16T14:56:07;21.70;91.30
16827;DHT22;8530;49.540;8.576;2022-10-16T14:58:35;21.70;91.50
16827;DHT22;8530;49.540;8.576;2022-10-16T15:01:02;21.70;91.70
16827;DHT22;8530;49.540;8.576;2022-10-16T15:03:33;21.60;91.80
16827;DHT22;8530;49.540;8.576;2022-10-16T15:06:00;21.70;91.90
16827;DHT22;8530;49.540;8.576;2022-10-16T15:08:27;21.70;92.00
16827;DHT22;8530;49.540;8.576;2022-10-16T15:10:54;21.70;92.00
16827;DHT22;8530;49.540;8.576;2022-10-16T15:13:21;21.80;92.00
16827;DHT22;8530;49.540;8.576;2022-10-16T15:15:47;21.80;92.00
16827;DHT22;8530;49.540;8.576;2022-10-16T15:18:15;21.90;92.00
16827;DHT22;8530;49.540;8.576;2022-10-16T15:20:48;22.00;92.00
16827;DHT22;8530;49.540;8.576;2022-10-16T15:23:17;22.10;91.90
16827;DHT22;8530;49.540;8.576;2022-10-16T15:25:47;22.10;91.80
16827;DHT22;8530;49.540;8.576;2022-10-16T15:28:15;22.10;92.00
16827;DHT22;8530;49.540;8.576;2022-10-16T15:30:43;22.20;91.70
16827;DHT22;8530;49.540;8.576;2022-10-16T15:33:13;22.10;91.60
16827;DHT22;8530;49.540;8.576;2022-10-16T15:35:40;22.00;91.50
16827;DHT22;8530;49.540;8.576;2022-10-16T15:38:10;21.90;91.40
16827;DHT22;8530;49.540;8.576;2022-10-16T15:40:38;21.70;91.50
16827;DHT22;8530;49.540;8.576;2022-10-16T15:43:05;21.70;91.60
16827;DHT22;8530;49.540;8.576;2022-10-16T15:45:33;21.50;91.60
16827;DHT22;8530;49.540;8.576;2022-10-16T15:47:59;21.40;91.70
16827;DHT22;8530;49.540;8.576;2022-10-16T15:50:27;21.40;91.90
16827;DHT22;8530;49.540;8.576;2022-10-16T15:52:54;21.30;92.00
16827;DHT22;8530;49.540;8.576;2022-10-16T15:55:22;21.30;92.10
16827;DHT22;8530;49.540;8.576;2022-10-16T15:57:48;21.20;92.20
16827;DHT22;8530;49.540;8.576;2022-10-16T16:00:17;21.20;92.30
16827;DHT22;8530;49.540;8.576;2022-10-16T16:02:50;21.20;92.40
16827;DHT22;8530;49.540;8.576;2022-10-16T16:05:18;21.10;92.40
16827;DHT22;8530;49.540;8.576;2022-10-16T16:07:46;21.10;92.50
16827;DHT22;8530;49.540;8.576;2022-10-16T16:10:13;21.00;92.60
16827;DHT22;8530;49.540;8.576;2022-10-16T16:12:41;20.90;92.70
16827;DHT22;8530;49.540;8.576;2022-10-16T16:15:08;20.90;92.80